Terminal Aerodrome Forecast
Issued by NWS

Home | Current Version | Previous Version | Text Only | Print | Product List | Glossary On
Versions: 1 2 3 4 5 6 7 8 9 10 11 12 13 14 15 16 17 18
000
FTUS44 KHGX 251130
TAFCXO
TAF
KCXO 251130Z 2512/2612 VRB02KT P6SM BKN250
     FM251600 VRB03KT P6SM VCSH SCT030
     FM251800 VRB04KT P6SM VCTS BKN035CB
      TEMPO 2519/2523 TSRA
     FM260200 VRB02KT P6SM VCSH SCT040
     FM260500 VRB02KT P6SM SCT025 BKN120=

USA.gov is the U.S. government's official web portal to all federal, state and local government web resources and services.